Terminal Aerodrome Forecast
Issued by NWS

Home | Current Version | Previous Version | Graphics & Text | Print | Product List | Glossary On
Versions: 1 2 3 4 5 6 7 8 9 10 11 12 13 14
000
FTUS45 KGGW 041720
TAFSDY
TAF
KSDY 041720Z 0418/0518 20007KT P6SM BKN100
     FM050000 20006KT P6SM OVC030
     FM050300 21006KT P6SM VCSH OVC020
     FM050600 22007KT 5SM -SN OVC020
     FM050900 28013KT 3SM -SN BKN015
     FM051500 30018G26KT P6SM BKN015=

USA.gov is the U.S. government's official web portal to all federal, state and local government web resources and services.